createdAt,value
2017-11-13T00:01:32.182Z,3.50
2017-11-13T00:03:59.688Z,3.60
2017-11-13T00:06:27.250Z,3.50
2017-11-13T00:08:54.735Z,3.60
2017-11-13T00:11:22.225Z,3.60
2017-11-13T00:13:49.733Z,3.60
2017-11-13T00:16:18.138Z,3.50
2017-11-13T00:18:45.675Z,3.60
2017-11-13T00:21:13.181Z,3.60
2017-11-13T00:23:41.456Z,3.60
2017-11-13T00:26:08.992Z,3.60
2017-11-13T00:28:36.466Z,3.60
2017-11-13T00:31:03.943Z,3.50
2017-11-13T00:33:32.467Z,3.50
2017-11-13T00:35:59.945Z,3.50
2017-11-13T00:38:27.422Z,3.50
2017-11-13T00:40:54.922Z,3.50
2017-11-13T00:43:22.390Z,3.50
2017-11-13T00:45:49.863Z,3.50
2017-11-13T00:48:17.350Z,3.60
2017-11-13T00:50:44.818Z,3.60
2017-11-13T00:53:13.251Z,3.50
2017-11-13T00:55:40.745Z,3.50
2017-11-13T00:58:08.230Z,3.50
2017-11-13T01:00:36.747Z,3.50
2017-11-13T01:03:04.234Z,3.50
2017-11-13T01:05:31.706Z,3.50
2017-11-13T01:07:59.174Z,3.60
2017-11-13T01:10:27.435Z,3.60
2017-11-13T01:12:54.910Z,3.60
2017-11-13T01:15:23.146Z,3.70
2017-11-13T01:17:50.641Z,3.60
2017-11-13T01:20:19.163Z,3.70
2017-11-13T01:22:46.643Z,3.70
2017-11-13T01:25:14.143Z,3.70
2017-11-13T01:27:42.438Z,3.70
2017-11-13T01:30:09.912Z,3.70
2017-11-13T01:32:37.411Z,3.70
2017-11-13T01:35:04.879Z,3.70
2017-11-13T01:37:33.119Z,3.70
2017-11-13T01:40:00.624Z,3.70
2017-11-13T01:42:28.864Z,3.70
2017-11-13T01:44:56.327Z,3.60
2017-11-13T01:47:23.822Z,3.70
2017-11-13T01:49:51.296Z,3.70
2017-11-13T01:52:18.774Z,3.70
2017-11-13T01:54:46.266Z,3.70
2017-11-13T01:57:13.748Z,3.70
2017-11-13T01:59:41.227Z,3.80
2017-11-13T02:02:08.718Z,3.70
2017-11-13T02:04:36.193Z,3.70
2017-11-13T02:07:03.663Z,3.70
2017-11-13T02:09:31.934Z,3.70
2017-11-13T02:12:00.462Z,3.70
2017-11-13T02:14:27.936Z,3.70
2017-11-13T02:16:55.423Z,3.70
2017-11-13T02:19:22.898Z,3.70
2017-11-13T02:21:51.140Z,3.80
2017-11-13T02:24:18.634Z,3.80
2017-11-13T02:26:47.151Z,3.80
2017-11-13T02:29:14.621Z,3.80
2017-11-13T02:31:42.114Z,3.80
2017-11-13T02:34:10.364Z,3.80
2017-11-13T02:36:37.843Z,3.70
2017-11-13T02:39:05.338Z,3.70
2017-11-13T02:41:32.810Z,3.70
2017-11-13T02:44:00.286Z,3.70
2017-11-13T02:46:27.790Z,3.80
2017-11-13T02:48:56.031Z,3.90
2017-11-13T02:51:23.506Z,3.80
2017-11-13T02:53:51.775Z,3.90
2017-11-13T02:56:19.286Z,3.90
2017-11-13T02:58:46.763Z,3.80
2017-11-13T03:01:14.269Z,3.90
2017-11-13T03:03:42.511Z,3.80
2017-11-13T03:06:09.982Z,3.80
2017-11-13T03:08:37.473Z,3.70
2017-11-13T03:11:04.943Z,3.70
2017-11-13T03:13:32.424Z,3.80
2017-11-13T03:15:59.918Z,3.80
2017-11-13T03:18:27.387Z,3.70
2017-11-13T03:20:55.626Z,3.70
2017-11-13T03:23:23.122Z,3.70
2017-11-13T03:25:51.359Z,3.70
2017-11-13T03:28:18.831Z,3.70
2017-11-13T03:30:46.339Z,3.70
2017-11-13T03:33:13.814Z,3.70
2017-11-13T03:35:41.605Z,3.70
2017-11-13T03:38:09.360Z,3.60
2017-11-13T03:40:36.830Z,3.70
2017-11-13T03:43:04.299Z,3.60
2017-11-13T03:45:32.555Z,3.70
2017-11-13T03:48:00.031Z,3.60
2017-11-13T03:50:28.270Z,3.70
2017-11-13T03:52:55.766Z,3.70
2017-11-13T03:55:23.258Z,3.70
2017-11-13T03:57:50.731Z,3.70
2017-11-13T04:00:18.227Z,3.70
2017-11-13T04:02:47.137Z,3.70
2017-11-13T04:05:15.374Z,3.70
2017-11-13T04:07:42.870Z,3.70
2017-11-13T04:10:11.114Z,3.70
2017-11-13T04:12:38.590Z,3.70
2017-11-13T04:15:06.846Z,3.80
2017-11-13T04:17:34.318Z,3.80
2017-11-13T04:20:01.791Z,3.80
2017-11-13T04:22:30.051Z,3.80
2017-11-13T04:24:57.526Z,3.80
2017-11-13T04:27:25.766Z,3.80
2017-11-13T04:29:53.262Z,3.80
2017-11-13T04:32:21.503Z,3.80
2017-11-13T04:34:49.232Z,3.80
2017-11-13T04:37:16.729Z,3.80
2017-11-13T04:39:44.904Z,3.80
2017-11-13T04:42:12.748Z,3.80
2017-11-13T04:44:40.521Z,3.70
2017-11-13T04:47:07.998Z,3.80
2017-11-13T04:49:35.476Z,3.70
2017-11-13T04:52:02.976Z,3.70
2017-11-13T04:54:30.451Z,3.70
2017-11-13T04:56:57.970Z,3.70
2017-11-13T04:59:25.466Z,3.60
2017-11-13T05:01:52.938Z,3.60
2017-11-13T05:04:20.405Z,3.60
2017-11-13T05:06:48.671Z,3.60
2017-11-13T05:09:16.146Z,3.60
2017-11-13T05:11:44.383Z,3.60
2017-11-13T05:14:11.879Z,3.60
2017-11-13T05:16:40.119Z,3.80
2017-11-13T05:19:07.595Z,3.70
2017-11-13T05:21:35.085Z,3.80
2017-11-13T05:24:02.558Z,3.80
2017-11-13T05:26:30.039Z,3.90
2017-11-13T05:28:57.537Z,3.90
2017-11-13T05:31:25.782Z,3.90
2017-11-13T05:33:53.263Z,3.90
2017-11-13T05:36:21.523Z,3.80
2017-11-13T05:38:48.994Z,3.80
2017-11-13T05:41:17.234Z,3.80
2017-11-13T05:43:44.736Z,3.80
2017-11-13T05:46:12.978Z,3.90
2017-11-13T05:48:40.447Z,3.80
2017-11-13T05:51:07.938Z,3.90
2017-11-13T05:53:35.410Z,3.80
2017-11-13T05:56:02.884Z,3.80
2017-11-13T05:58:30.645Z,3.80
2017-11-13T06:00:58.120Z,3.80
2017-11-13T06:03:25.594Z,3.80
2017-11-13T06:05:53.086Z,3.80
2017-11-13T06:08:20.559Z,3.90
2017-11-13T06:10:48.034Z,3.90
2017-11-13T06:13:15.527Z,3.90
2017-11-13T06:15:43.221Z,3.90
2017-11-13T06:18:11.454Z,3.70
2017-11-13T06:20:38.954Z,3.70
2017-11-13T06:23:06.435Z,3.80
2017-11-13T06:25:33.910Z,3.80
2017-11-13T06:28:01.403Z,3.80
2017-11-13T06:30:28.874Z,3.80
2017-11-13T06:32:57.115Z,3.80
2017-11-13T06:35:24.606Z,3.80
2017-11-13T06:37:52.847Z,3.90
2017-11-13T06:40:20.313Z,3.90
2017-11-13T06:42:47.805Z,3.90
2017-11-13T06:45:15.278Z,3.90
2017-11-13T06:47:42.761Z,3.90
2017-11-13T06:50:10.318Z,3.90
2017-11-13T06:52:37.792Z,4.00
2017-11-13T06:55:05.273Z,4.00
2017-11-13T06:57:33.541Z,4.00
2017-11-13T07:00:01.022Z,4.00
2017-11-13T07:02:29.258Z,4.00
2017-11-13T07:04:56.949Z,4.00
2017-11-13T07:07:25.696Z,4.10
2017-11-13T07:09:54.127Z,4.10
2017-11-13T07:12:21.742Z,4.10
2017-11-13T07:14:50.010Z,4.10
2017-11-13T07:17:17.547Z,4.10
2017-11-13T07:19:45.082Z,4.10
2017-11-13T07:22:12.559Z,4.20
2017-11-13T07:24:40.031Z,4.20
2017-11-13T07:27:07.523Z,4.20
2017-11-13T07:29:34.995Z,4.30
2017-11-13T07:32:03.279Z,4.50
2017-11-13T07:34:30.966Z,4.40
2017-11-13T07:36:58.478Z,4.50
2017-11-13T07:39:25.955Z,4.50
2017-11-13T07:41:54.269Z,4.60
2017-11-13T07:44:21.738Z,4.50
2017-11-13T07:46:49.979Z,4.70
2017-11-13T07:49:17.474Z,4.70
2017-11-13T07:51:44.947Z,4.70
2017-11-13T07:54:12.427Z,4.70
2017-11-13T07:56:40.696Z,4.70
2017-11-13T07:59:08.167Z,4.70
2017-11-13T08:01:36.690Z,4.80
2017-11-13T08:04:04.187Z,4.80
2017-11-13T08:06:31.658Z,4.80
2017-11-13T08:08:59.944Z,4.90
2017-11-13T08:11:27.446Z,4.90
2017-11-13T08:13:54.923Z,5.00
2017-11-13T08:16:22.399Z,5.10
2017-11-13T08:18:49.927Z,5.10
2017-11-13T08:21:18.175Z,4.90
2017-11-13T08:23:45.654Z,4.90
2017-11-13T08:26:13.150Z,4.90
2017-11-13T08:28:41.395Z,5.00
2017-11-13T08:31:08.870Z,5.00
2017-11-13T08:33:36.363Z,5.10
2017-11-13T08:36:03.846Z,5.10
2017-11-13T08:38:31.323Z,5.10
2017-11-13T08:40:58.815Z,5.30
2017-11-13T08:43:27.055Z,5.50
2017-11-13T08:45:54.534Z,5.40
2017-11-13T08:48:22.030Z,5.50
2017-11-13T08:50:49.726Z,5.50
2017-11-13T08:53:17.194Z,5.50
2017-11-13T08:55:44.687Z,5.60
2017-11-13T08:58:12.929Z,5.60
2017-11-13T09:00:40.663Z,5.60
2017-11-13T09:03:08.163Z,5.70
2017-11-13T09:05:35.636Z,5.70
2017-11-13T09:08:03.887Z,5.60
2017-11-13T09:10:31.390Z,5.60
2017-11-13T09:12:58.864Z,5.60
2017-11-13T09:15:26.350Z,5.70
2017-11-13T09:17:53.843Z,5.90
2017-11-13T09:20:22.091Z,6.40
2017-11-13T09:22:49.562Z,6.40
2017-11-13T09:25:17.054Z,6.80
2017-11-13T09:27:44.526Z,7.00
2017-11-13T09:30:12.005Z,7.00
2017-11-13T09:32:40.387Z,7.10
2017-11-13T09:35:07.863Z,7.20
2017-11-13T09:37:35.333Z,7.40
2017-11-13T09:40:03.611Z,7.50
2017-11-13T09:42:31.850Z,7.50
2017-11-13T09:44:59.350Z,7.50
2017-11-13T09:47:27.634Z,7.40
2017-11-13T09:49:55.866Z,7.40
2017-11-13T09:52:23.335Z,7.40
2017-11-13T09:54:50.823Z,7.60
2017-11-13T09:57:18.312Z,7.60
2017-11-13T09:59:45.858Z,7.60
2017-11-13T10:02:13.359Z,7.50
2017-11-13T10:04:40.830Z,7.20
2017-11-13T10:07:08.308Z,7.00
2017-11-13T10:09:36.563Z,7.40
2017-11-13T10:12:04.034Z,7.40
2017-11-13T10:14:32.278Z,7.60
2017-11-13T10:16:59.779Z,7.60
2017-11-13T10:19:27.254Z,7.60
2017-11-13T10:21:54.722Z,7.60
2017-11-13T10:24:22.206Z,7.80
2017-11-13T10:26:49.678Z,8.00
2017-11-13T10:29:17.154Z,8.10
2017-11-13T10:31:45.415Z,8.00
2017-11-13T10:34:13.130Z,8.00
2017-11-13T10:36:40.599Z,7.80
2017-11-13T10:39:08.090Z,7.80
2017-11-13T10:41:35.557Z,7.90
2017-11-13T10:44:03.798Z,8.10
2017-11-13T10:46:31.291Z,8.10
2017-11-13T10:48:59.526Z,8.40
2017-11-13T10:51:26.994Z,8.40
2017-11-13T10:53:55.246Z,8.90
2017-11-13T10:56:22.718Z,8.80
2017-11-13T10:58:50.955Z,8.90
2017-11-13T11:01:18.438Z,8.90
2017-11-13T11:03:45.914Z,8.80
2017-11-13T11:06:13.378Z,8.70
2017-11-13T11:08:40.866Z,8.40
2017-11-13T11:11:09.135Z,8.50
2017-11-13T11:27:02.291Z,7.10
2017-11-13T11:29:35.549Z,6.80
2017-11-13T11:32:03.047Z,6.70
2017-11-13T11:34:50.418Z,6.80
2017-11-13T11:37:22.380Z,6.80
2017-11-13T11:39:49.871Z,6.70
2017-11-13T11:42:18.112Z,6.50
2017-11-13T11:58:20.802Z,6.30
2017-11-13T12:00:48.274Z,6.30
2017-11-13T12:03:16.518Z,6.50
2017-11-13T12:05:44.019Z,6.40
2017-11-13T12:08:11.502Z,6.50
2017-11-13T12:10:38.991Z,6.60
2017-11-13T12:13:06.495Z,6.70
2017-11-13T12:15:33.992Z,6.90
2017-11-13T12:18:01.488Z,7.10
2017-11-13T12:20:29.745Z,7.50
2017-11-13T12:22:57.219Z,7.50
2017-11-13T12:25:24.740Z,7.60
2017-11-13T12:27:52.255Z,7.70
2017-11-13T12:30:19.735Z,7.90
2017-11-13T12:32:47.206Z,8.40
2017-11-13T12:35:14.699Z,8.70
2017-11-13T12:37:42.184Z,8.90
2017-11-13T12:40:09.735Z,9.10
2017-11-13T12:42:37.990Z,9.00
2017-11-13T12:45:05.459Z,9.00
2017-11-13T12:47:33.694Z,8.90
2017-11-13T12:50:01.183Z,8.80
2017-11-13T12:52:28.654Z,8.80
2017-11-13T12:54:56.968Z,8.50
2017-11-13T12:57:24.480Z,8.50
2017-11-13T12:59:51.946Z,8.50
2017-11-13T13:02:20.356Z,8.30
2017-11-13T13:04:47.849Z,8.30
2017-11-13T13:07:15.377Z,8.20
2017-11-13T13:09:42.851Z,8.20
2017-11-13T13:12:10.340Z,8.30
2017-11-13T13:14:38.069Z,8.60
2017-11-13T13:17:05.549Z,9.60
2017-11-13T13:19:33.043Z,9.70
2017-11-13T13:22:01.289Z,10.80
2017-11-13T13:24:28.773Z,10.80
2017-11-13T13:26:57.039Z,11.70
2017-11-13T13:29:25.278Z,12.00
2017-11-13T13:31:52.751Z,12.00
2017-11-13T13:34:20.251Z,12.30
2017-11-13T13:36:47.732Z,12.50
2017-11-13T13:39:15.202Z,12.60
2017-11-13T13:41:42.743Z,12.60
2017-11-13T13:44:10.217Z,12.80
2017-11-13T13:46:37.686Z,12.80
2017-11-13T13:49:05.179Z,12.50
2017-11-13T13:51:33.418Z,12.10
2017-11-13T13:54:01.159Z,12.10
2017-11-13T13:56:28.655Z,12.00
2017-11-13T13:58:56.135Z,11.90
2017-11-13T14:01:23.615Z,11.60
2017-11-13T14:03:51.114Z,11.00
2017-11-13T14:06:18.599Z,10.70
2017-11-13T14:08:46.846Z,10.20
2017-11-13T14:11:14.339Z,10.20
2017-11-13T14:13:42.579Z,9.50
2017-11-13T14:16:10.055Z,9.50
2017-11-13T14:18:37.547Z,9.20
2017-11-13T14:21:05.024Z,9.10
2017-11-13T14:23:32.577Z,9.00
2017-11-13T14:26:00.078Z,8.80
2017-11-13T14:28:28.309Z,8.50
2017-11-13T14:30:56.079Z,8.50
2017-11-13T14:33:23.576Z,8.30
2017-11-13T14:35:51.051Z,8.30
2017-11-13T14:38:19.292Z,8.20
2017-11-13T14:40:46.791Z,8.20
2017-11-13T14:43:16.032Z,7.80
2017-11-13T14:45:43.515Z,7.80
2017-11-13T14:48:11.030Z,7.70
2017-11-13T14:50:38.525Z,7.50
2017-11-13T14:53:06.009Z,7.30
2017-11-13T14:55:33.530Z,7.20
2017-11-13T14:58:01.026Z,7.20
2017-11-13T15:00:29.270Z,7.00
2017-11-13T15:02:56.814Z,7.00
2017-11-13T15:05:24.292Z,7.00
2017-11-13T15:07:52.021Z,6.90
2017-11-13T15:10:19.538Z,6.90
2017-11-13T15:12:47.778Z,6.60
2017-11-13T15:15:15.276Z,6.60
2017-11-13T15:17:42.796Z,6.40
2017-11-13T15:20:10.274Z,6.30
2017-11-13T15:22:38.297Z,6.30
2017-11-13T15:25:05.823Z,6.30
2017-11-13T15:27:34.091Z,6.10
2017-11-13T15:30:02.371Z,6.10
2017-11-13T15:32:30.844Z,6.00
2017-11-13T15:34:58.386Z,6.00
2017-11-13T15:37:25.894Z,5.90
2017-11-13T15:39:53.390Z,5.90
2017-11-13T15:42:20.863Z,5.80
2017-11-13T15:44:49.153Z,5.70
2017-11-13T15:47:17.414Z,5.70
2017-11-13T15:49:44.930Z,5.70
2017-11-13T15:52:12.410Z,5.70
2017-11-13T15:54:39.898Z,5.60
2017-11-13T15:57:08.147Z,5.60
2017-11-13T15:59:35.618Z,5.50
2017-11-13T16:02:03.162Z,5.60
2017-11-13T16:04:30.634Z,5.40
2017-11-13T16:06:58.355Z,5.20
2017-11-13T16:09:26.117Z,5.10
2017-11-13T16:11:53.603Z,4.90
2017-11-13T16:14:21.082Z,4.70
2017-11-13T16:16:48.574Z,4.60
2017-11-13T16:19:16.047Z,4.60
2017-11-13T16:21:43.519Z,4.50
2017-11-13T16:24:11.006Z,4.50
2017-11-13T16:26:38.479Z,4.40
2017-11-13T16:29:06.718Z,4.40
2017-11-13T16:31:34.233Z,4.40
2017-11-13T16:34:01.717Z,4.50
2017-11-13T16:36:29.211Z,4.50
2017-11-13T16:38:56.968Z,4.60
2017-11-13T16:41:25.443Z,4.60
2017-11-13T16:43:52.925Z,4.60
2017-11-13T16:46:21.184Z,4.60
2017-11-13T16:48:48.655Z,4.60
2017-11-13T16:51:16.902Z,4.70
2017-11-13T16:53:44.398Z,4.70
2017-11-13T16:56:12.648Z,4.70
2017-11-13T16:58:40.126Z,4.70
2017-11-13T17:01:08.387Z,4.80
2017-11-13T17:03:35.868Z,4.80
2017-11-13T17:06:03.350Z,4.80
2017-11-13T17:08:30.841Z,4.90
2017-11-13T17:10:58.350Z,4.90
2017-11-13T17:13:25.822Z,4.70
2017-11-13T17:15:53.310Z,4.60
2017-11-13T17:18:20.790Z,4.40
2017-11-13T17:20:48.265Z,4.30
2017-11-13T17:23:16.526Z,4.10
2017-11-13T17:25:44.820Z,4.10
2017-11-13T17:28:12.305Z,4.10
2017-11-13T17:30:40.074Z,4.20
2017-11-13T17:33:07.546Z,4.20
2017-11-13T17:35:35.038Z,4.10
2017-11-13T17:38:02.540Z,4.20
2017-11-13T17:40:30.016Z,4.20
2017-11-13T17:42:57.496Z,4.20
2017-11-13T17:45:25.002Z,4.20
2017-11-13T17:47:52.482Z,4.20
2017-11-13T17:50:19.959Z,4.20
2017-11-13T17:52:47.468Z,4.20
2017-11-13T17:55:14.943Z,4.20
2017-11-13T17:57:42.422Z,4.30
2017-11-13T18:00:09.986Z,4.40
2017-11-13T18:02:37.470Z,4.50
2017-11-13T18:05:04.944Z,4.50
2017-11-13T18:07:33.216Z,4.60
2017-11-13T18:10:01.454Z,4.70
2017-11-13T18:12:28.926Z,4.70
2017-11-13T18:14:56.423Z,4.70
2017-11-13T18:17:23.902Z,4.80
2017-11-13T18:19:51.378Z,4.80
2017-11-13T18:22:18.870Z,4.70
2017-11-13T18:24:46.343Z,4.60
2017-11-13T18:27:14.138Z,4.60
2017-11-13T18:29:41.688Z,4.70
2017-11-13T18:32:09.191Z,4.70
2017-11-13T18:34:36.672Z,4.80
2017-11-13T18:37:04.923Z,4.80
2017-11-13T18:39:32.400Z,4.80
2017-11-13T18:42:00.642Z,4.80
2017-11-13T18:44:28.904Z,4.90
2017-11-13T18:46:56.482Z,4.90
2017-11-13T18:49:23.966Z,4.80
2017-11-13T18:51:52.223Z,4.90
2017-11-13T18:54:19.694Z,4.90
2017-11-13T18:56:47.167Z,5.00
2017-11-13T18:59:15.682Z,5.00
2017-11-13T19:01:43.155Z,5.00
2017-11-13T19:04:10.631Z,5.10
2017-11-13T19:06:38.123Z,4.90
2017-11-13T19:09:05.602Z,4.80
2017-11-13T19:11:33.126Z,4.80
2017-11-13T19:14:01.401Z,4.90
2017-11-13T19:16:29.649Z,5.00
2017-11-13T19:18:57.207Z,4.90
2017-11-13T19:21:24.710Z,5.00
2017-11-13T19:23:52.194Z,5.00
2017-11-13T19:26:19.670Z,5.00
2017-11-13T19:28:47.174Z,5.00
2017-11-13T19:31:15.414Z,5.00
2017-11-13T19:33:42.881Z,5.00
2017-11-13T19:36:10.377Z,5.00
2017-11-13T19:38:37.851Z,4.90
2017-11-13T19:41:05.332Z,5.00
2017-11-13T19:43:32.858Z,5.00
2017-11-13T19:46:00.396Z,5.00
2017-11-13T19:48:28.662Z,5.00
2017-11-13T19:50:56.918Z,5.00
2017-11-13T19:53:24.431Z,5.00
2017-11-13T19:55:51.942Z,4.90
2017-11-13T19:58:19.439Z,4.80
2017-11-13T20:00:46.921Z,4.80
2017-11-13T20:03:15.234Z,4.70
2017-11-13T20:05:42.740Z,4.70
2017-11-13T20:08:10.236Z,4.60
2017-11-13T20:10:37.706Z,4.60
2017-11-13T20:13:05.206Z,4.60
2017-11-13T20:15:32.682Z,4.40
2017-11-13T20:18:00.158Z,4.40
2017-11-13T20:20:27.649Z,4.40
2017-11-13T20:22:55.942Z,4.20
2017-11-13T20:25:23.410Z,4.20
2017-11-13T20:27:50.909Z,4.10
2017-11-13T20:30:18.476Z,4.00
2017-11-13T20:32:45.950Z,3.90
2017-11-13T20:35:14.255Z,3.60
2017-11-13T20:37:41.730Z,3.60
2017-11-13T20:40:09.204Z,3.50
2017-11-13T20:42:36.809Z,3.50
2017-11-13T20:45:05.059Z,3.40
2017-11-13T20:47:32.539Z,3.40
2017-11-13T20:50:00.958Z,3.40
2017-11-13T20:52:28.433Z,3.40
2017-11-13T20:54:55.914Z,3.50
2017-11-13T20:57:23.414Z,3.50
2017-11-13T20:59:50.891Z,3.60
2017-11-13T21:02:18.366Z,3.60
2017-11-13T21:04:45.865Z,3.50
2017-11-13T21:07:14.110Z,3.40
2017-11-13T21:09:41.579Z,3.40
2017-11-13T21:12:09.071Z,3.50
2017-11-13T21:14:36.548Z,3.50
2017-11-13T21:17:04.030Z,3.60
2017-11-13T21:19:31.521Z,3.70
2017-11-13T21:21:59.760Z,3.80
2017-11-13T21:24:27.235Z,3.70
2017-11-13T21:26:55.061Z,3.80
2017-11-13T21:29:22.534Z,3.80
2017-11-13T21:31:50.011Z,3.80
2017-11-13T21:34:17.506Z,3.80
2017-11-13T21:36:44.991Z,3.80
2017-11-13T21:39:12.462Z,3.80
2017-11-13T21:41:39.954Z,3.80
2017-11-13T21:44:07.426Z,3.80
2017-11-13T21:46:35.670Z,3.70
2017-11-13T21:49:03.170Z,3.70
2017-11-13T21:51:30.642Z,3.70
2017-11-13T21:53:58.121Z,3.80
2017-11-13T21:56:25.739Z,3.90
2017-11-13T21:58:53.227Z,3.80
2017-11-13T22:01:20.702Z,3.80
2017-11-13T22:03:48.198Z,3.90
2017-11-13T22:06:16.439Z,4.00
2017-11-13T22:08:43.913Z,4.10
2017-11-13T22:11:11.402Z,4.10
2017-11-13T22:13:39.638Z,4.20
2017-11-13T22:16:07.110Z,4.20
2017-11-13T22:18:34.601Z,4.30
2017-11-13T22:21:02.074Z,4.20
2017-11-13T22:23:29.555Z,4.20
2017-11-13T22:25:57.050Z,4.20
2017-11-13T22:28:25.292Z,4.20
2017-11-13T22:30:52.769Z,4.20
2017-11-13T22:33:20.270Z,4.10
2017-11-13T22:35:47.746Z,4.00
2017-11-13T22:38:15.222Z,3.90
2017-11-13T22:40:42.714Z,3.90
2017-11-13T22:43:10.982Z,3.80
2017-11-13T22:45:38.693Z,3.80
2017-11-13T22:48:06.183Z,3.80
2017-11-13T22:50:33.669Z,3.70
2017-11-13T22:53:01.911Z,3.70
2017-11-13T22:55:29.407Z,3.70
2017-11-13T22:57:57.646Z,3.70
2017-11-13T23:00:25.123Z,3.70
2017-11-13T23:02:53.390Z,3.70
2017-11-13T23:05:20.863Z,3.70
2017-11-13T23:07:49.103Z,3.80
2017-11-13T23:10:16.599Z,3.80
2017-11-13T23:12:44.839Z,3.90
2017-11-13T23:15:12.307Z,3.90
2017-11-13T23:17:39.806Z,3.90
2017-11-13T23:20:07.273Z,3.90
2017-11-13T23:22:35.050Z,3.90
2017-11-13T23:25:02.564Z,3.90
2017-11-13T23:27:30.806Z,3.90
2017-11-13T23:29:58.287Z,3.90
2017-11-13T23:32:25.786Z,3.90
2017-11-13T23:34:53.266Z,3.90
2017-11-13T23:37:20.738Z,3.90
2017-11-13T23:39:48.226Z,3.70
2017-11-13T23:42:16.462Z,3.40
2017-11-13T23:44:43.946Z,3.40
2017-11-13T23:47:11.445Z,3.50
2017-11-13T23:49:39.129Z,3.60
2017-11-13T23:52:06.608Z,3.70
2017-11-13T23:54:37.322Z,3.70
2017-11-13T23:57:04.797Z,3.80
2017-11-13T23:59:32.274Z,3.80
